createdAt,value
2017-10-01T06:38:10.227Z,95605.71
2017-10-01T06:40:37.498Z,95605.16
2017-10-01T06:43:04.715Z,95606.67
2017-10-01T06:45:31.905Z,95605.73
2017-10-01T06:47:59.246Z,95609.31
2017-10-01T06:50:26.464Z,95613.10
2017-10-01T06:52:53.642Z,95613.10
2017-10-01T06:55:20.912Z,95620.05
2017-10-01T06:57:48.139Z,95620.05
2017-10-01T07:00:15.374Z,95620.44
2017-10-01T07:02:42.612Z,95618.95
2017-10-01T07:05:22.091Z,95630.25
2017-10-01T07:07:49.328Z,95629.70
2017-10-01T07:10:16.622Z,95630.63
2017-10-01T07:12:43.789Z,95628.77
2017-10-01T07:15:11.076Z,95625.74
2017-10-01T07:17:38.257Z,95619.15
2017-10-01T07:20:05.435Z,95627.83
2017-10-01T07:22:32.631Z,95627.83
2017-10-01T07:24:59.798Z,95630.47
2017-10-01T07:27:27.045Z,95632.91
2017-10-01T07:29:54.271Z,95632.37
2017-10-01T07:32:21.515Z,95633.49
2017-10-01T07:34:48.841Z,95638.22
2017-10-01T07:37:24.497Z,95635.97
2017-10-01T07:39:51.733Z,95635.58
2017-10-01T07:42:22.505Z,95634.09
2017-10-01T07:44:49.720Z,95636.16
2017-10-01T07:47:16.974Z,95634.09
2017-10-01T07:49:44.250Z,95630.72
2017-10-01T07:52:11.491Z,95630.52
2017-10-01T07:54:38.759Z,95635.41
2017-10-01T07:57:05.999Z,95635.80
2017-10-01T07:59:33.158Z,95634.31
2017-10-01T08:02:00.432Z,95624.70
2017-10-01T08:04:40.193Z,95632.06
2017-10-01T08:07:07.378Z,95628.46
2017-10-01T08:09:34.678Z,95628.68
2017-10-01T08:12:01.914Z,95630.36
2017-10-01T08:14:29.208Z,95629.80
2017-10-01T08:16:57.129Z,95628.88
2017-10-01T08:19:28.174Z,95633.95
2017-10-01T08:21:55.354Z,95637.75
2017-10-01T08:24:23.590Z,95635.88
2017-10-01T08:27:05.750Z,95642.67
2017-10-01T08:29:32.926Z,95639.67
2017-10-01T08:32:00.071Z,95641.77
2017-10-01T08:34:27.306Z,95646.08
2017-10-01T08:36:54.504Z,95642.50
2017-10-01T08:39:21.658Z,95645.36
2017-10-01T08:41:48.874Z,95644.23
2017-10-01T08:44:16.153Z,95651.95
2017-10-01T08:46:43.412Z,95646.68
2017-10-01T08:49:10.626Z,95642.36
2017-10-01T08:51:37.858Z,95642.94
2017-10-01T08:54:05.083Z,95642.55
2017-10-01T08:56:32.277Z,95645.58
2017-10-01T08:58:59.434Z,95643.13
2017-10-01T09:01:26.686Z,95640.87
2017-10-01T09:03:53.912Z,95639.58
2017-10-01T09:06:21.083Z,95642.03
2017-10-01T09:08:48.562Z,95634.11
2017-10-01T09:11:15.768Z,95638.84
2017-10-01T09:13:42.976Z,95641.28
2017-10-01T09:16:10.184Z,95636.39
2017-10-01T09:18:37.402Z,95639.41
2017-10-01T09:21:04.703Z,95640.92
2017-10-01T09:23:31.903Z,95631.88
2017-10-01T09:25:59.118Z,95631.69
2017-10-01T09:28:50.090Z,95631.30
2017-10-01T09:31:17.425Z,95631.52
2017-10-01T09:33:44.616Z,95630.00
2017-10-01T09:36:12.242Z,95634.19
2017-10-01T09:38:39.483Z,95637.95
2017-10-01T09:41:06.666Z,95642.68
2017-10-01T09:43:33.868Z,95644.73
2017-10-01T09:46:01.111Z,95639.46
2017-10-01T09:48:28.380Z,95637.02
2017-10-01T09:50:55.598Z,95641.75
2017-10-01T09:53:22.848Z,95640.23
2017-10-01T09:55:50.064Z,95639.48
2017-10-01T09:58:17.294Z,95639.10
2017-10-01T10:00:44.493Z,95636.30
2017-10-01T10:03:11.732Z,95635.75
2017-10-01T10:05:38.941Z,95629.50
2017-10-01T10:08:06.148Z,95634.23
2017-10-01T10:10:33.369Z,95631.98
2017-10-01T10:15:43.019Z,95629.91
2017-10-01T10:18:10.952Z,95630.69
2017-10-01T10:20:38.116Z,95632.94
2017-10-01T10:23:05.487Z,95630.48
2017-10-01T10:25:42.760Z,95626.17
2017-10-01T10:28:10.033Z,95635.80
2017-10-01T10:30:37.266Z,95630.31
2017-10-01T10:33:04.480Z,95628.83
2017-10-01T10:35:31.707Z,95629.22
2017-10-01T10:37:58.943Z,95634.88
2017-10-01T10:40:47.065Z,95632.98
2017-10-01T10:45:59.408Z,95627.92
2017-10-01T10:48:26.643Z,95630.17
2017-10-01T10:50:53.936Z,95629.59
2017-10-01T10:53:21.156Z,95628.27
2017-10-01T10:55:48.411Z,95628.50
2017-10-01T11:01:18.849Z,95634.35
2017-10-01T11:03:46.082Z,95633.03
2017-10-01T11:06:13.307Z,95631.88
2017-10-01T11:08:40.475Z,95635.48
2017-10-01T11:11:07.631Z,95626.81
2017-10-01T11:13:54.211Z,95622.47
2017-10-01T11:16:21.529Z,95624.91
2017-10-01T11:18:48.707Z,95624.72
2017-10-01T11:21:16.025Z,95624.72
2017-10-01T11:23:43.251Z,95622.27
2017-10-01T11:26:10.530Z,95621.89
2017-10-01T11:28:37.720Z,95625.27
2017-10-01T11:34:04.409Z,95630.77
2017-10-01T11:36:31.655Z,95629.07
2017-10-01T11:38:58.838Z,95627.55
2017-10-01T11:41:26.218Z,95632.28
2017-10-01T11:43:53.394Z,95631.73
2017-10-01T11:46:20.629Z,95627.00
2017-10-01T11:48:47.876Z,95634.56
2017-10-01T11:51:15.111Z,95632.34
2017-10-01T11:53:42.280Z,95636.13
2017-10-01T11:56:09.498Z,95628.80
2017-10-01T11:58:36.725Z,95634.11
2017-10-01T12:01:03.963Z,95638.83
2017-10-01T12:03:31.189Z,95637.37
2017-10-01T12:05:58.386Z,95635.69
2017-10-01T12:08:25.623Z,95636.86
2017-10-01T12:10:52.854Z,95639.14
2017-10-01T12:13:20.053Z,95630.27
2017-10-01T12:15:47.289Z,95631.62
2017-10-01T12:18:14.563Z,95632.96
2017-10-01T12:20:41.795Z,95629.77
2017-10-01T12:23:08.998Z,95635.06
2017-10-01T12:25:36.224Z,95633.22
2017-10-01T12:28:03.467Z,95636.45
2017-10-01T12:30:30.755Z,95639.67
2017-10-01T12:32:57.981Z,95638.92
2017-10-01T12:35:25.219Z,95637.23
2017-10-01T12:37:52.384Z,95642.16
2017-10-01T12:40:19.591Z,95643.50
2017-10-01T12:42:46.815Z,95646.88
2017-10-01T12:45:14.080Z,95647.10
2017-10-01T12:47:41.383Z,95653.53
2017-10-01T12:50:08.579Z,95641.83
2017-10-01T12:52:35.748Z,95643.53
2017-10-01T12:55:03.012Z,95645.43
2017-10-01T12:57:30.179Z,95649.61
2017-10-01T12:59:57.374Z,95643.75
2017-10-01T13:02:24.583Z,95644.91
2017-10-01T13:04:51.792Z,95646.61
2017-10-01T13:07:18.991Z,95643.77
2017-10-01T13:09:46.217Z,95645.86
2017-10-01T13:12:13.441Z,95642.63
2017-10-01T13:14:40.704Z,95649.84
2017-10-01T13:17:07.893Z,95644.74
2017-10-01T13:19:35.114Z,95650.97
2017-10-01T13:22:02.359Z,95646.84
2017-10-01T13:24:29.570Z,95642.29
2017-10-01T13:26:56.850Z,95639.27
2017-10-01T13:29:24.054Z,95644.19
2017-10-01T13:31:51.750Z,95646.83
2017-10-01T13:34:19.016Z,95645.51
2017-10-01T13:36:46.182Z,95648.15
2017-10-01T13:39:13.418Z,95646.47
2017-10-01T13:41:40.610Z,95642.51
2017-10-01T13:44:07.770Z,95640.80
2017-10-01T13:46:35.067Z,95644.19
2017-10-01T13:49:02.230Z,95647.59
2017-10-01T13:51:29.426Z,95646.11
2017-10-01T13:53:56.627Z,95642.50
2017-10-01T13:56:23.843Z,95644.97
2017-10-01T13:58:51.032Z,95644.04
2017-10-01T14:01:18.321Z,95645.93
2017-10-01T14:03:45.664Z,95641.58
2017-10-01T14:06:12.959Z,95648.37
2017-10-01T14:08:40.197Z,95656.52
2017-10-01T14:11:07.382Z,95651.63
2017-10-01T14:13:34.726Z,95649.72
2017-10-01T14:16:01.902Z,95655.39
2017-10-01T14:18:29.129Z,95651.81
2017-10-01T14:20:56.417Z,95651.05
2017-10-01T14:23:23.609Z,95651.63
2017-10-01T14:25:50.849Z,95647.66
2017-10-01T14:28:18.378Z,95651.23
2017-10-01T14:30:46.101Z,95655.95
2017-10-01T14:33:13.384Z,95650.30
2017-10-01T14:35:40.639Z,95655.59
2017-10-01T14:38:07.807Z,95653.11
2017-10-01T14:40:35.223Z,95656.69
2017-10-01T14:43:02.443Z,95652.73
2017-10-01T14:45:29.639Z,95657.63
2017-10-01T14:47:56.934Z,95659.14
2017-10-01T14:50:24.177Z,95657.64
2017-10-01T14:52:51.327Z,95659.52
2017-10-01T14:55:18.566Z,95659.52
2017-10-01T14:57:45.833Z,95661.38
2017-10-01T15:00:13.040Z,95658.74
2017-10-01T15:02:40.274Z,95664.23
2017-10-01T15:05:07.514Z,95667.25
2017-10-01T15:07:34.689Z,95666.87
2017-10-01T15:10:01.924Z,95667.80
2017-10-01T15:12:29.142Z,95663.45
2017-10-01T15:14:56.379Z,95665.14
2017-10-01T15:17:23.620Z,95668.55
2017-10-01T15:19:50.872Z,95667.78
2017-10-01T15:22:18.099Z,95666.84
2017-10-01T15:24:45.311Z,95669.88
2017-10-01T15:27:12.502Z,95667.78
2017-10-01T15:29:39.686Z,95668.53
2017-10-01T15:32:06.955Z,95678.55
2017-10-01T15:34:34.196Z,95668.53
2017-10-01T15:37:01.450Z,95678.72
2017-10-01T15:39:28.609Z,95678.72
2017-10-01T15:41:55.872Z,95680.59
2017-10-01T15:44:23.043Z,95679.85
2017-10-01T15:46:50.263Z,95679.63
2017-10-01T15:49:17.524Z,95680.95
2017-10-01T15:51:44.853Z,95675.48
2017-10-01T15:54:12.031Z,95678.70
2017-10-01T15:56:39.291Z,95678.50
2017-10-01T15:59:06.554Z,95678.70
2017-10-01T16:01:33.879Z,95684.16
2017-10-01T16:04:01.086Z,95680.74
2017-10-01T16:06:28.389Z,95683.22
2017-10-01T16:08:55.621Z,95680.00
2017-10-01T16:11:22.826Z,95689.44
2017-10-01T16:13:50.043Z,95689.64
2017-10-01T16:16:17.615Z,95683.20
2017-10-01T16:18:44.879Z,95683.03
2017-10-01T16:21:12.120Z,95677.91
2017-10-01T16:23:39.342Z,95679.62
2017-10-01T16:26:06.587Z,95676.97
2017-10-01T16:28:33.843Z,95679.78
2017-10-01T16:31:01.087Z,95675.08
2017-10-01T16:33:28.345Z,95679.21
2017-10-01T16:35:55.599Z,95674.13
2017-10-01T16:38:22.765Z,95675.25
2017-10-01T16:40:50.105Z,95684.50
2017-10-01T16:43:19.931Z,95683.17
2017-10-01T16:45:47.173Z,95679.02
2017-10-01T16:48:14.461Z,95674.67
2017-10-01T16:50:41.700Z,95675.80
2017-10-01T16:53:08.854Z,95674.48
2017-10-01T16:55:36.038Z,95679.00
2017-10-01T16:58:03.254Z,95682.20
2017-10-01T17:00:30.492Z,95676.55
2017-10-01T17:02:57.646Z,95674.08
2017-10-01T17:05:24.912Z,95682.20
2017-10-01T17:07:52.167Z,95681.98
2017-10-01T17:10:19.550Z,95683.50
2017-10-01T17:12:46.870Z,95684.81
2017-10-01T17:15:14.040Z,95684.05
2017-10-01T17:17:41.290Z,95683.09
2017-10-01T17:20:08.520Z,95688.76
2017-10-01T17:22:35.675Z,95690.63
2017-10-01T17:25:02.911Z,95692.15
2017-10-01T17:27:30.096Z,95695.34
2017-10-01T17:29:57.355Z,95688.93
2017-10-01T17:32:24.568Z,95693.45
2017-10-01T17:34:51.887Z,95690.62
2017-10-01T17:37:19.098Z,95698.55
2017-10-01T17:39:46.347Z,95696.45
2017-10-01T17:42:13.587Z,95693.42
2017-10-01T17:44:40.870Z,95703.03
2017-10-01T17:47:08.063Z,95706.06
2017-10-01T17:49:35.353Z,95708.89
2017-10-01T17:52:02.644Z,95704.71
2017-10-01T17:54:29.979Z,95710.74
2017-10-01T17:56:57.314Z,95714.54
2017-10-01T17:59:24.557Z,95710.00
2017-10-01T18:01:51.778Z,95712.81
2017-10-01T18:04:18.966Z,95714.30
2017-10-01T18:06:46.209Z,95717.08
2017-10-01T18:09:13.422Z,95719.70
2017-10-01T18:11:40.656Z,95721.16
2017-10-01T18:14:07.881Z,95720.56
2017-10-01T18:16:35.410Z,95722.41
2017-10-01T18:19:02.626Z,95721.64
2017-10-01T18:21:29.849Z,95725.58
2017-10-01T18:23:57.079Z,95723.66
2017-10-01T18:26:24.309Z,95723.79
2017-10-01T18:28:51.556Z,95717.19
2017-10-01T18:31:18.754Z,95724.54
2017-10-01T18:33:45.963Z,95725.45
2017-10-01T18:36:13.190Z,95722.59
2017-10-01T18:38:40.391Z,95725.77
2017-10-01T18:41:07.629Z,95726.91
2017-10-01T18:43:34.882Z,95723.30
2017-10-01T18:46:02.049Z,95723.28
2017-10-01T18:48:29.313Z,95731.17
2017-10-01T18:50:56.509Z,95728.72
2017-10-01T18:53:23.724Z,95734.36
2017-10-01T18:55:50.881Z,95732.82
2017-10-01T18:58:18.054Z,95737.13
2017-10-01T19:00:45.334Z,95734.85
2017-10-01T19:03:12.579Z,95739.00
2017-10-01T19:05:39.781Z,95737.49
2017-10-01T19:08:07.049Z,95736.34
2017-10-01T19:10:34.285Z,95741.97
2017-10-01T19:13:01.506Z,95740.84
2017-10-01T19:15:28.683Z,95737.82
2017-10-01T19:17:55.925Z,95746.09
2017-10-01T19:20:23.170Z,95746.64
2017-10-01T19:22:50.415Z,95750.41
2017-10-01T19:25:17.710Z,95747.94
2017-10-01T19:27:44.922Z,95745.88
2017-10-01T19:30:12.194Z,95750.00
2017-10-01T19:32:39.444Z,95749.25
2017-10-01T19:35:06.680Z,95746.97
2017-10-01T19:37:33.920Z,95753.57
2017-10-01T19:40:01.172Z,95753.73
2017-10-01T19:42:28.317Z,95753.16
2017-10-01T19:44:55.570Z,95752.00
2017-10-01T19:47:22.775Z,95757.86
2017-10-01T19:49:49.960Z,95758.21
2017-10-01T19:52:17.179Z,95756.89
2017-10-01T19:54:44.419Z,95752.71
2017-10-01T19:57:11.644Z,95755.93
2017-10-01T19:59:38.846Z,95752.12
2017-10-01T20:02:06.066Z,95751.75
2017-10-01T20:04:33.282Z,95752.33
2017-10-01T20:07:00.578Z,95754.97
2017-10-01T20:09:27.739Z,95763.42
2017-10-01T20:11:54.978Z,95765.30
2017-10-01T20:14:22.179Z,95764.72
2017-10-01T20:16:49.346Z,95767.55
2017-10-01T20:19:16.555Z,95764.33
2017-10-01T20:21:43.764Z,95764.49
2017-10-01T20:24:11.032Z,95762.98
2017-10-01T20:26:38.414Z,95758.09
2017-10-01T20:29:05.614Z,95760.34
2017-10-01T20:31:32.799Z,95761.82
2017-10-01T20:34:00.034Z,95764.11
2017-10-01T20:36:27.215Z,95763.50
2017-10-01T20:38:54.448Z,95767.09
2017-10-01T20:41:21.673Z,95767.45
2017-10-01T20:43:48.866Z,95766.33
2017-10-01T20:46:16.048Z,95762.92
2017-10-01T20:48:43.279Z,95766.33
2017-10-01T20:51:10.495Z,95770.83
2017-10-01T20:53:38.540Z,95772.34
2017-10-01T20:56:05.713Z,95778.17
2017-10-01T20:58:32.934Z,95777.78
2017-10-01T21:01:00.303Z,95775.88
2017-10-01T21:03:27.689Z,95774.56
2017-10-01T21:05:54.917Z,95770.61
2017-10-01T21:08:22.146Z,95769.64
2017-10-01T21:10:49.372Z,95773.22
2017-10-01T21:13:16.541Z,95774.18
2017-10-01T21:15:43.755Z,95768.91
2017-10-01T21:18:10.930Z,95767.75
2017-10-01T21:20:38.131Z,95767.36
2017-10-01T21:23:05.408Z,95770.00
2017-10-01T21:25:32.593Z,95764.33
2017-10-01T21:27:59.825Z,95765.84
2017-10-01T21:30:26.980Z,95769.03
2017-10-01T21:32:54.155Z,95771.13
2017-10-01T21:35:21.412Z,95773.18
2017-10-01T21:37:48.596Z,95777.52
2017-10-01T21:40:15.830Z,95782.41
2017-10-01T21:42:43.107Z,95781.64
2017-10-01T21:45:10.394Z,95776.92
2017-10-01T21:47:37.629Z,95776.17
2017-10-01T21:50:04.960Z,95784.09
2017-10-01T21:52:32.150Z,95784.64
2017-10-01T21:54:59.402Z,95784.25
2017-10-01T21:57:26.608Z,95784.83
2017-10-01T21:59:53.803Z,95784.44
2017-10-01T22:02:21.042Z,95783.51
2017-10-01T22:04:48.314Z,95780.48
2017-10-01T22:07:15.558Z,95789.72
2017-10-01T22:09:42.726Z,95784.05
2017-10-01T22:12:09.951Z,95780.64
2017-10-01T22:14:37.126Z,95784.22
2017-10-01T22:17:04.267Z,95780.26
2017-10-01T22:19:31.535Z,95779.52
2017-10-01T22:21:58.774Z,95777.78
2017-10-01T22:24:25.990Z,95777.23
2017-10-01T22:26:53.347Z,95777.39
2017-10-01T22:29:20.509Z,95783.05
2017-10-01T22:31:47.717Z,95785.89
2017-10-01T22:34:14.958Z,95787.78
2017-10-01T22:36:42.198Z,95788.72
2017-10-01T22:39:09.402Z,95791.36
2017-10-01T22:41:36.620Z,95788.52
2017-10-01T22:44:03.783Z,95793.41
2017-10-01T22:46:30.937Z,95801.14
2017-10-01T22:48:58.149Z,95793.19
2017-10-01T22:51:25.380Z,95801.68
2017-10-01T22:53:52.585Z,95805.83
2017-10-01T22:56:19.798Z,95804.13
2017-10-01T22:58:47.014Z,95804.32
2017-10-01T23:01:14.219Z,95801.48
2017-10-01T23:03:41.461Z,95805.64
2017-10-01T23:06:08.650Z,95802.23
2017-10-01T23:08:35.912Z,95802.42
2017-10-01T23:11:03.114Z,95803.73
2017-10-01T23:13:30.427Z,95802.97
2017-10-01T23:15:57.620Z,95796.76
2017-10-01T23:18:24.824Z,95794.28
2017-10-01T23:20:52.115Z,95805.41
2017-10-01T23:23:19.380Z,95799.75
2017-10-01T23:25:46.639Z,95799.91
2017-10-01T23:28:13.848Z,95802.55
2017-10-01T23:30:41.076Z,95799.36
2017-10-01T23:33:08.340Z,95803.32
2017-10-01T23:35:35.517Z,95803.13
2017-10-01T23:38:02.744Z,95796.14
2017-10-01T23:40:29.963Z,95794.83
2017-10-01T23:42:57.126Z,95791.22
2017-10-01T23:45:24.439Z,95787.07
2017-10-01T23:47:51.655Z,95792.92
2017-10-01T23:50:18.839Z,95791.22
2017-10-01T23:52:46.066Z,95783.11
2017-10-01T23:55:13.334Z,95789.13
2017-10-01T23:57:40.581Z,95778.58
